Worthington, IA (52078)

9:51 PM CDT on August 21, 2014 (GMT -0500)
South Lake | Change Station
CLOSE
Current Station
Personal Weather Station
Location: Farley, IA
Elevation: 1083 ft
Nearby Weather Stations

Elev 1083 ft 42.44 °N, 91.00 °W | Updated 36 seconds ago

Overcast
Overcast
71.0 °F
Feels Like 71.0 °F
N
0.0
Wind Variable Wind from East
Gusts 0.0 mph

Today
High -- | Low -- °F
--% Chance of Precip.
Yesterday
High -- | Low -- °F
Precip. -- in
6:17 AM 7:56 PM
Waning Crescent, 11% visible
Pressure 29.90 in
Visibility 10.0 miles
Clouds Scattered Clouds 3200 ft
Mostly Cloudy 3800 ft
Overcast 8000 ft
Dew Point 70 °F
Humidity 97%
Rainfall 0.32 in
Snow Depth Not available.
UV 0 out of 12
Pollen 8.10 out of 12
Air Quality Not available.
Flu Activity Not available.
METAR KMXO 220235Z AUTO 05003KT 10SM SCT032 BKN038 OVC080 23/23 A2990 RMK AO2

More Conditions Fewer Conditions

Pressure 29.90 in
Visibility 10.0 miles
Clouds Scattered Clouds 3200 ft
Mostly Cloudy 3800 ft
Overcast 8000 ft
Dew Point 70 °F
Humidity 97%
Rainfall 0.32 in
Snow Depth Not available.
UV 0 out of 12
Pollen 8.10 out of 12
Air Quality Not available.
Flu Activity Not available.
METAR KMXO 220235Z AUTO 05003KT 10SM SCT032 BKN038 OVC080 23/23 A2990 RMK AO2

More Conditions Fewer Conditions

10-Day Weather Forecast

Almanac

Astronomy

Aug. 21, 2014 Rise Set
Actual Time 6:17 AM CDT 7:56 PM CDT
Civil Twilight 5:48 AM CDT 8:26 PM CDT
Nautical Twilight 5:12 AM CDT 9:01 PM CDT
Astronomical Twilight 4:33 AM CDT 9:40 PM CDT
Moon 2:46 AM CDT (8/21) 5:27 PM CDT (8/21)
Length of Visible Light 14h 37m
Length of Day
13h 38m
Tomorrow will be 2m 38s shorter.
Waning Crescent, 11% of the Moon is Illuminated
Today
Waning Crescent
Aug 25
New
Sep 2
First Quarter
Sep 8
Full
Sep 15
Last Quarter

Today's Extremes

State Highs State Lows

Community

WunderPhotos

Upload Photos

1,746,109 photos uploaded!

WunderBlogs® & News

Nearby

Snow Depth

Station Depth Elevation
No new snow has been reported.

Earthquake Activity

City Distance Mag. Time & Date
No recent earthquake activity has been reported nearby.
Minimum magnitude displayed is 2.5.

Coastal Water Temperatures

Place Temperature
No Stations Reporting

Nearby Weather Stations